Time;durP1;ratioP1;P1;durP2;ratioP2;P2;SDS_P1;SDS_P2;PMS_P1;PMS_P2;Temp;Humidity;BMP_temperature;BMP_pressure;BME280_temperature;BME280_humidity;BME280_pressure;Samples;Min_cycle;Max_cycle;Signal;HPM_P1;HPM_P2
2022/02/06 00:01:35;;;;;;;22.90;5.55;;;7.80;99.90;;;;;;6214929;22;20016;-80
2022/02/06 00:04:02;;;;;;;25.58;5.63;;;7.80;99.90;;;;;;6164370;22;20038;-79
2022/02/06 00:06:33;;;;;;;19.20;4.60;;;7.80;99.90;;;;;;6215404;22;20482;-80
2022/02/06 00:08:59;;;;;;;21.58;6.00;;;7.80;99.90;;;;;;6189158;22;20019;-77
2022/02/06 00:11:25;;;;;;;30.52;6.35;;;7.80;99.90;;;;;;6238932;22;20073;-79
2022/02/06 00:13:50;;;;;;;22.48;5.45;;;7.80;99.90;;;;;;6213222;22;20095;-78
2022/02/06 00:16:16;;;;;;;25.25;5.95;;;7.80;99.90;;;;;;6188975;22;20022;-78
2022/02/06 00:18:44;;;;;;;27.17;6.10;;;7.90;99.90;;;;;;6164287;22;20435;-80
2022/02/06 00:21:14;;;;;;;23.70;5.35;;;7.90;99.90;;;;;;6190084;22;20049;-77
2022/02/06 00:23:41;;;;;;;29.63;6.72;;;7.90;99.90;;;;;;6238947;22;20011;-80
2022/02/06 00:26:20;;;;;;;26.80;5.95;;;7.90;99.90;;;;;;6191245;22;20019;-79
2022/02/06 00:28:59;;;;;;;24.27;5.75;;;7.90;99.90;;;;;;6217091;22;20451;-80
2022/02/06 00:31:45;;;;;;;26.73;6.28;;;8.00;99.90;;;;;;6189178;23;20016;-80
2022/02/06 00:35:18;;;;;;;29.23;5.90;;;7.90;99.90;;;;;;6211248;23;20795;-78
2022/02/06 00:39:44;;;;;;;33.47;6.55;;;7.90;99.90;;;;;;6235913;23;20024;-75
2022/02/06 00:42:11;;;;;;;23.92;5.80;;;7.90;99.90;;;;;;6210426;23;20127;-80
2022/02/06 00:44:37;;;;;;;29.00;5.97;;;8.00;99.90;;;;;;6211665;23;20051;-75
2022/02/06 00:47:03;;;;;;;26.10;6.40;;;8.00;99.90;;;;;;6236805;23;20322;-80
2022/02/06 00:49:30;;;;;;;28.50;6.45;;;8.00;99.90;;;;;;6212426;23;20198;-79
2022/02/06 00:54:26;;;;;;;35.97;7.22;;;8.00;99.90;;;;;;6237088;23;20028;-80
2022/02/06 00:56:52;;;;;;;37.35;6.78;;;8.00;99.90;;;;;;6211753;23;20429;-78
2022/02/06 00:59:18;;;;;;;33.78;6.60;;;8.00;99.90;;;;;;6237968;23;20026;-80
2022/02/06 01:01:44;;;;;;;34.10;6.97;;;8.00;99.90;;;;;;6211700;23;20016;-77
2022/02/06 01:04:11;;;;;;;29.30;6.22;;;8.00;99.90;;;;;;6212858;23;20024;-80
2022/02/06 01:06:37;;;;;;;25.98;5.97;;;8.00;99.90;;;;;;6211809;23;20445;-79
2022/02/06 01:09:03;;;;;;;26.73;5.88;;;8.10;99.90;;;;;;6211663;23;20024;-79
2022/02/06 01:11:30;;;;;;;32.50;6.68;;;8.10;99.90;;;;;;6237834;23;20087;-79
2022/02/06 01:19:24;;;;;;;38.58;7.18;;;8.10;99.90;;;;;;6170767;23;20348;-79
2022/02/06 01:22:04;;;;;;;27.58;5.75;;;8.10;99.90;;;;;;6236352;23;20020;-77
2022/02/06 01:27:08;;;;;;;23.40;5.15;;;8.10;99.90;;;;;;6236803;23;20077;-78
2022/02/06 01:30:01;;;;;;;30.23;5.80;;;8.10;99.90;;;;;;6237090;23;20016;-80
2022/02/06 01:32:25;;;;;;;39.88;6.60;;;8.10;99.90;;;;;;6215162;23;20510;-79
2022/02/06 01:35:08;;;;;;;;;;;8.10;99.90;;;;;;6213354;23;20380;-80
2022/02/06 01:38:07;;;;;;;32.13;6.32;;;8.10;99.90;;;;;;6215127;23;19916;-78
2022/02/06 01:40:39;;;;;;;32.22;5.93;;;8.10;99.90;;;;;;6235996;23;20024;-78
2022/02/06 01:43:10;;;;;;;38.08;7.10;;;8.10;99.90;;;;;;6211599;23;20013;-78
2022/02/06 02:02:23;;;;;;;36.55;6.68;;;8.10;99.90;;;;;;6239331;23;20028;-81
2022/02/06 02:08:59;;;;;;;31.75;6.75;;;8.10;99.90;;;;;;6239191;23;20016;-76
2022/02/06 02:32:58;;;;;;;28.35;6.72;;;8.10;99.90;;;;;;6239582;23;20020;-81
2022/02/06 02:44:30;;;;;;;38.20;8.57;;;8.10;99.90;;;;;;6239230;23;20457;-80
2022/02/06 02:46:40;;;;;;;31.38;6.57;;;8.20;99.90;;;;;;6238955;23;20051;-78
2022/02/06 02:49:09;;;;;;;37.58;6.75;;;8.10;99.90;;;;;;6190120;23;20018;-81
2022/02/06 02:51:41;;;;;;;35.55;7.20;;;8.10;99.90;;;;;;6212541;23;20095;-80
2022/02/06 02:54:11;;;;;;;33.80;7.00;;;8.10;99.90;;;;;;6213634;23;20016;-73
2022/02/06 02:56:46;;;;;;;;;;;8.10;99.90;;;;;;6214583;23;20020;-80
2022/02/06 02:59:45;;;;;;;29.67;6.45;;;8.10;99.90;;;;;;6215430;23;19923;-79
2022/02/06 03:02:02;;;;;;;33.38;7.18;;;8.10;99.90;;;;;;6235314;23;20086;-80
2022/02/06 03:04:28;;;;;;;33.90;7.18;;;8.20;99.90;;;;;;6215381;23;20027;-80
2022/02/06 03:06:54;;;;;;;36.47;8.45;;;8.20;99.90;;;;;;6189027;23;20352;-80
2022/02/06 03:09:22;;;;;;;29.63;6.40;;;8.20;99.90;;;;;;6214627;23;20027;-80
2022/02/06 03:11:47;;;;;;;31.48;7.55;;;8.30;99.90;;;;;;6239778;23;20305;-81
2022/02/06 03:14:19;;;;;;;32.88;7.22;;;8.20;99.90;;;;;;6240717;23;20023;-79
2022/02/06 03:16:54;;;;;;;39.60;7.75;;;8.10;99.90;;;;;;6214986;23;20016;-80
2022/02/06 03:19:21;;;;;;;34.15;7.28;;;8.10;99.90;;;;;;6215193;23;20099;-80
2022/02/06 03:21:47;;;;;;;34.50;8.23;;;8.10;99.90;;;;;;6213889;23;20396;-77
2022/02/06 03:26:42;;;;;;;36.13;7.85;;;8.20;99.90;;;;;;6240584;23;20021;-79
2022/02/06 03:29:15;;;;;;;32.65;6.28;;;8.20;99.90;;;;;;6215336;23;20018;-75
2022/02/06 03:31:41;;;;;;;40.33;7.95;;;8.20;99.90;;;;;;6239148;23;20016;-81
2022/02/06 03:34:08;;;;;;;31.42;7.40;;;8.20;99.90;;;;;;6239945;23;20085;-78
2022/02/06 03:36:37;;;;;;;29.42;7.18;;;8.20;99.90;;;;;;6214184;23;20082;-78
2022/02/06 03:39:05;;;;;;;29.50;6.95;;;8.20;99.90;;;;;;6238779;23;20023;-76
2022/02/06 03:41:52;;;;;;;39.53;7.28;;;8.20;99.90;;;;;;6238694;23;20024;-78
2022/02/06 03:44:39;;;;;;;34.55;7.55;;;8.30;99.90;;;;;;6214484;23;20022;-80
2022/02/06 03:47:18;;;;;;;31.63;6.43;;;8.30;99.90;;;;;;6213823;23;20067;-73
2022/02/06 03:50:00;;;;;;;29.42;6.95;;;8.30;99.90;;;;;;6239357;23;20514;-80
2022/02/06 03:52:41;;;;;;;36.45;7.68;;;8.30;99.90;;;;;;6213427;23;20449;-79
2022/02/06 03:55:08;;;;;;;39.40;7.28;;;8.30;99.90;;;;;;6237139;23;20024;-87
2022/02/06 03:57:34;;;;;;;29.42;6.70;;;8.30;99.90;;;;;;6238167;23;20020;-80
2022/02/06 03:59:59;;;;;;;29.10;6.63;;;8.30;99.90;;;;;;6211969;23;20378;-88
2022/02/06 04:02:26;;;;;;;27.88;6.07;;;8.30;99.90;;;;;;6213715;23;20031;-81
2022/02/06 04:04:52;;;;;;;36.15;7.10;;;8.30;99.90;;;;;;6213138;23;20020;-87
2022/02/06 04:07:17;;;;;;;37.50;7.47;;;8.30;99.90;;;;;;6239093;23;20102;-87
2022/02/06 04:09:49;;;;;;;31.92;7.03;;;8.30;99.90;;;;;;6213389;23;20020;-89
2022/02/06 04:12:17;;;;;;;29.50;6.25;;;8.20;99.90;;;;;;6213930;23;20016;-87
2022/02/06 04:14:54;;;;;;;25.35;6.32;;;8.30;99.90;;;;;;6237954;23;20020;-88
2022/02/06 04:17:36;;;;;;;34.60;8.43;;;8.20;99.90;;;;;;6238968;23;20020;-88
2022/02/06 04:20:01;;;;;;;24.42;5.72;;;8.20;99.90;;;;;;6238991;23;20016;-79
2022/02/06 04:22:30;;;;;;;33.22;6.63;;;8.20;99.90;;;;;;6213259;23;20150;-80
2022/02/06 04:24:56;;;;;;;21.58;5.90;;;8.20;99.90;;;;;;6238145;23;20548;-74
2022/02/06 04:27:22;;;;;;;27.70;5.88;;;8.30;99.90;;;;;;6213659;23;20020;-77
2022/02/06 04:29:49;;;;;;;28.17;5.65;;;8.30;99.90;;;;;;6238824;22;20016;-79
2022/02/06 04:32:15;;;;;;;25.85;5.68;;;8.30;99.90;;;;;;6218639;22;20073;-77
2022/02/06 04:34:41;;;;;;;25.67;5.68;;;8.30;99.90;;;;;;6193950;22;20018;-79
2022/02/06 04:37:15;;;;;;;25.67;5.00;;;8.30;99.90;;;;;;6218855;22;20047;-81
2022/02/06 05:28:07;;;;;;;26.80;6.25;;;8.50;99.90;;;;;;6219310;22;20072;-81
2022/02/06 05:30:49;;;;;;;22.85;5.65;;;8.50;99.90;;;;;;6175613;22;20020;-82
2022/02/06 05:33:15;;;;;;;27.60;6.20;;;8.50;99.90;;;;;;6216720;22;20023;-80
2022/02/06 05:35:41;;;;;;;28.20;6.00;;;8.50;99.90;;;;;;6192270;22;20016;-79
2022/02/06 05:38:07;;;;;;;27.95;5.07;;;8.40;99.90;;;;;;6192063;22;20026;-80
2022/02/06 05:40:33;;;;;;;28.48;5.43;;;8.50;99.90;;;;;;6216046;22;20057;-78
2022/02/06 05:42:59;;;;;;;23.83;6.10;;;8.40;99.90;;;;;;6241954;22;20686;-79
2022/02/06 05:45:25;;;;;;;28.95;5.68;;;8.50;99.90;;;;;;6192866;22;20016;-79
2022/02/06 05:47:51;;;;;;;25.27;6.05;;;8.50;99.90;;;;;;6217762;22;20015;-81
2022/02/06 05:50:19;;;;;;;29.67;6.28;;;8.50;99.90;;;;;;6167741;22;20016;-82
2022/02/06 05:52:46;;;;;;;27.17;5.10;;;8.50;99.90;;;;;;6216606;22;20015;-79
2022/02/06 05:55:15;;;;;;;24.00;5.83;;;8.50;99.90;;;;;;6216542;22;20011;-80
2022/02/06 05:57:41;;;;;;;23.33;5.75;;;8.50;99.90;;;;;;6190980;22;20750;-78
2022/02/06 06:00:09;;;;;;;27.20;5.80;;;8.50;99.90;;;;;;6215447;22;20109;-81
2022/02/06 06:02:38;;;;;;;24.42;5.75;;;8.40;99.90;;;;;;6241399;22;20024;-78
2022/02/06 06:05:04;;;;;;;23.17;6.10;;;8.40;99.90;;;;;;6216094;22;20099;-81
2022/02/06 06:07:30;;;;;;;32.25;6.35;;;8.40;99.90;;;;;;6215960;22;20069;-81
2022/02/06 06:09:56;;;;;;;28.80;5.45;;;8.40;99.90;;;;;;6192111;22;20015;-80
2022/02/06 06:12:22;;;;;;;21.58;4.93;;;8.40;99.90;;;;;;6216127;22;20026;-82
2022/02/06 06:14:48;;;;;;;24.70;4.97;;;8.40;99.90;;;;;;6189661;22;20016;-77
2022/02/06 06:17:15;;;;;;;25.90;4.88;;;8.40;99.90;;;;;;6240817;22;20012;-79
2022/02/06 06:19:45;;;;;;;27.55;6.15;;;8.40;99.90;;;;;;6241026;22;20480;-81
2022/02/06 06:22:12;;;;;;;28.35;6.05;;;8.50;99.90;;;;;;6215562;22;20018;-76
2022/02/06 06:24:44;;;;;;;30.05;6.65;;;8.40;99.90;;;;;;6218606;22;20016;-80
2022/02/06 06:27:10;;;;;;;19.33;5.28;;;8.40;99.90;;;;;;6195345;22;20019;-79
2022/02/06 06:29:36;;;;;;;30.65;6.72;;;8.40;99.90;;;;;;6219325;22;20023;-80
2022/02/06 06:32:02;;;;;;;26.35;6.18;;;8.50;99.90;;;;;;6238725;23;20022;-80
2022/02/06 06:34:31;;;;;;;25.40;5.43;;;8.50;99.90;;;;;;6239055;23;20035;-81
2022/02/06 06:36:57;;;;;;;24.88;6.03;;;8.50;99.90;;;;;;6214222;23;20092;-82
2022/02/06 06:39:37;;;;;;;27.00;5.38;;;8.40;99.90;;;;;;6215574;23;20085;-82
2022/02/06 06:42:04;;;;;;;27.33;5.07;;;8.50;99.90;;;;;;6213748;23;20449;-78
2022/02/06 06:44:32;;;;;;;21.33;4.60;;;8.50;99.90;;;;;;6239535;23;20012;-78
2022/02/06 06:46:58;;;;;;;15.85;3.92;;;8.50;99.90;;;;;;6238817;23;20027;-81
2022/02/06 06:49:24;;;;;;;23.40;4.78;;;8.50;99.90;;;;;;6188725;23;20023;-72
2022/02/06 06:51:49;;;;;;;23.80;5.43;;;8.50;99.90;;;;;;6237908;23;20047;-78
2022/02/06 06:54:20;;;;;;;24.00;5.82;;;8.50;99.90;;;;;;6213946;23;20082;-78
2022/02/06 06:59:47;;;;;;;29.52;5.65;;;8.40;99.90;;;;;;6239413;23;20020;-81
2022/02/06 07:04:54;;;;;;;25.60;5.22;;;8.40;99.90;;;;;;6239182;23;20031;-80
2022/02/06 07:07:20;;;;;;;25.38;5.78;;;8.40;99.90;;;;;;6213717;23;20012;-81
2022/02/06 07:09:46;;;;;;;25.50;5.05;;;8.30;99.90;;;;;;6213172;23;20091;-79
2022/02/06 07:12:15;;;;;;;24.08;4.43;;;8.40;99.90;;;;;;6212042;23;20361;-81
2022/02/06 07:14:45;;;;;;;26.20;5.65;;;8.40;99.90;;;;;;6238547;23;20382;-81
2022/02/06 07:17:12;;;;;;;23.85;4.25;;;8.40;99.90;;;;;;6213031;23;20031;-81
2022/02/06 07:19:40;;;;;;;22.23;4.88;;;8.40;99.90;;;;;;6213263;23;20348;-82
2022/02/06 07:22:10;;;;;;;21.42;4.55;;;8.40;99.90;;;;;;6237733;23;20099;-83
2022/02/06 07:24:36;;;;;;;19.77;4.45;;;8.40;99.90;;;;;;6237257;23;20371;-78
2022/02/06 07:27:05;;;;;;;23.50;4.10;;;8.50;99.90;;;;;;6212958;23;20020;-80
2022/02/06 07:29:32;;;;;;;23.05;4.45;;;8.50;99.90;;;;;;6213398;23;20024;-79
2022/02/06 07:32:00;;;;;;;23.00;4.32;;;8.50;99.90;;;;;;6212081;23;20501;-78
2022/02/06 07:34:26;;;;;;;20.38;4.47;;;8.50;99.90;;;;;;6238943;23;20020;-77
2022/02/06 07:36:52;;;;;;;22.42;4.47;;;8.50;99.90;;;;;;6212119;23;20051;-79
2022/02/06 07:39:18;;;;;;;22.60;4.90;;;8.50;99.90;;;;;;6213854;23;20349;-75
2022/02/06 07:41:44;;;;;;;26.95;4.88;;;8.60;99.90;;;;;;6212848;23;20525;-83
2022/02/06 07:44:10;;;;;;;20.83;4.47;;;8.50;99.90;;;;;;6188097;23;20349;-83
2022/02/06 07:46:43;;;;;;;25.42;5.50;;;8.60;99.90;;;;;;6213280;23;20031;-78
2022/02/06 07:49:10;;;;;;;22.83;4.70;;;8.50;99.90;;;;;;6213055;23;20020;-80
2022/02/06 07:51:36;;;;;;;29.48;5.93;;;8.50;99.90;;;;;;6237820;23;20024;-79
2022/02/06 07:54:05;;;;;;;28.17;5.18;;;8.40;99.90;;;;;;6213020;23;20074;-79
2022/02/06 07:56:33;;;;;;;26.77;5.67;;;8.40;99.90;;;;;;6238966;23;20031;-79
2022/02/06 07:58:59;;;;;;;22.70;4.80;;;8.40;99.90;;;;;;6213246;23;20294;-79
2022/02/06 08:01:25;;;;;;;23.15;4.93;;;8.40;99.90;;;;;;6212847;23;20024;-80
2022/02/06 08:03:51;;;;;;;21.10;4.50;;;8.40;99.90;;;;;;6237786;23;20062;-81
2022/02/06 08:06:17;;;;;;;23.10;4.75;;;8.40;99.90;;;;;;6213590;23;20016;-78
2022/02/06 08:08:43;;;;;;;20.17;4.45;;;8.50;99.90;;;;;;6238274;23;20012;-76
2022/02/06 08:11:13;;;;;;;27.75;5.10;;;8.50;99.90;;;;;;6237950;23;20095;-81
2022/02/06 08:13:52;;;;;;;23.80;4.40;;;8.50;99.90;;;;;;6189074;23;20079;-79
2022/02/06 08:16:18;;;;;;;21.95;4.22;;;8.50;99.90;;;;;;6214054;23;20071;-79
2022/02/06 08:18:46;;;;;;;25.92;5.20;;;8.50;99.90;;;;;;6213369;23;20052;-75
2022/02/06 08:21:12;;;;;;;27.08;5.05;;;8.60;99.90;;;;;;6213952;23;20016;-79
2022/02/06 08:23:41;;;;;;;30.13;5.75;;;8.50;99.90;;;;;;6212509;23;20140;-80
2022/02/06 08:26:07;;;;;;;27.45;5.03;;;8.50;99.90;;;;;;6213046;23;20353;-76
2022/02/06 08:28:33;;;;;;;23.33;5.20;;;8.60;99.90;;;;;;6238247;23;20027;-78
2022/02/06 08:31:02;;;;;;;25.63;5.03;;;8.60;99.90;;;;;;6207844;22;20215;-80
2022/02/06 08:33:31;;;;;;;24.88;5.22;;;8.60;99.90;;;;;;6191541;22;20162;-80
2022/02/06 08:35:59;;;;;;;20.23;4.60;;;8.60;99.90;;;;;;6214870;22;20016;-79
2022/02/06 08:38:31;;;;;;;29.77;5.32;;;8.60;99.90;;;;;;6191809;22;20016;-79
2022/02/06 08:40:57;;;;;;;36.92;5.95;;;8.60;99.90;;;;;;6191836;22;20016;-76
2022/02/06 08:43:25;;;;;;;27.70;4.20;;;8.50;99.90;;;;;;6194471;22;20058;-78
2022/02/06 08:45:51;;;;;;;24.05;4.53;;;8.50;99.90;;;;;;6242947;22;20286;-79
2022/02/06 08:48:17;;;;;;;23.75;4.45;;;8.50;99.90;;;;;;6217339;22;20022;-79
2022/02/06 08:50:45;;;;;;;23.13;4.20;;;8.60;99.90;;;;;;6243422;22;20518;-78
2022/02/06 08:53:14;;;;;;;26.60;4.80;;;8.60;99.90;;;;;;6197434;22;20023;-78
2022/02/06 08:55:39;;;;;;;25.70;4.57;;;8.60;99.90;;;;;;6218278;22;20098;-78
2022/02/06 08:58:05;;;;;;;23.98;4.20;;;8.60;99.90;;;;;;6217792;22;20108;-77
2022/02/06 09:00:31;;;;;;;25.40;4.20;;;8.50;99.90;;;;;;6217568;22;20027;-79
2022/02/06 09:03:00;;;;;;;21.13;4.43;;;8.50;99.90;;;;;;6191757;22;20518;-73
2022/02/06 09:05:26;;;;;;;23.13;4.72;;;8.60;99.90;;;;;;6217461;22;20398;-75
2022/02/06 09:07:52;;;;;;;26.15;5.00;;;8.60;99.90;;;;;;6243373;22;20364;-77
2022/02/06 09:10:20;;;;;;;23.95;3.95;;;8.60;99.90;;;;;;6218928;22;20222;-76
2022/02/06 09:12:53;;;;;;;30.50;5.13;;;8.60;99.90;;;;;;6193184;22;20034;-79
2022/02/06 09:15:22;;;;;;;21.90;4.35;;;8.60;99.90;;;;;;6241869;22;20293;-78
2022/02/06 09:17:49;;;;;;;21.25;4.10;;;8.50;99.90;;;;;;6189680;22;20019;-78
2022/02/06 09:20:19;;;;;;;21.80;3.90;;;8.60;99.90;;;;;;6242736;22;20065;-77
2022/02/06 09:22:45;;;;;;;24.00;4.70;;;8.60;99.90;;;;;;6215077;22;20347;-78
2022/02/06 09:25:12;;;;;;;22.15;4.00;;;8.50;99.90;;;;;;6214510;22;20019;-81
2022/02/06 09:27:38;;;;;;;23.17;3.75;;;8.50;99.90;;;;;;6215141;22;20016;-76
2022/02/06 09:30:12;;;;;;;27.85;4.72;;;8.50;99.90;;;;;;6190002;22;20549;-79
2022/02/06 09:37:32;;;;;;;17.80;3.80;;;8.50;99.90;;;;;;6238271;23;20029;-78
2022/02/06 09:39:59;;;;;;;16.05;2.97;;;8.50;99.90;;;;;;6211096;23;20051;-78
2022/02/06 09:42:31;;;;;;;15.65;2.88;;;8.50;99.90;;;;;;6238111;23;20027;-78
2022/02/06 09:45:13;;;;;;;14.95;3.58;;;8.50;99.90;;;;;;6236959;23;20055;-78
2022/02/06 09:47:43;;;;;;;21.65;4.25;;;8.50;99.90;;;;;;6236841;23;20457;-80
2022/02/06 09:50:12;;;;;;;20.00;3.70;;;8.50;99.90;;;;;;6237586;23;20031;-78
2022/02/06 09:52:40;;;;;;;22.17;4.70;;;8.50;99.90;;;;;;6213030;23;20027;-80
2022/02/06 09:55:13;;;;;;;20.63;4.22;;;8.50;99.90;;;;;;6237708;23;20028;-78
2022/02/06 09:57:52;;;;;;;19.73;3.90;;;8.50;99.90;;;;;;6238351;23;20081;-80
2022/02/06 10:00:25;;;;;;;22.67;4.05;;;8.50;99.90;;;;;;6212544;23;20020;-80
2022/02/06 10:03:01;;;;;;;18.65;3.20;;;8.50;99.90;;;;;;6211665;23;20468;-79
2022/02/06 10:05:37;;;;;;;17.50;3.20;;;8.50;99.90;;;;;;6211850;23;20039;-79
2022/02/06 10:08:15;;;;;;;16.08;3.30;;;8.60;99.90;;;;;;6237666;23;20479;-78
2022/02/06 10:11:03;;;;;;;11.73;3.08;;;8.60;99.90;;;;;;6211066;23;20370;-85
2022/02/06 10:13:34;;;;;;;15.75;2.88;;;8.60;99.90;;;;;;6210400;23;20016;-84
2022/02/06 10:16:01;;;;;;;13.52;2.97;;;8.60;99.90;;;;;;6212165;23;20449;-86
2022/02/06 10:18:30;;;;;;;13.75;3.28;;;8.60;99.90;;;;;;6213232;23;20020;-86
2022/02/06 10:20:59;;;;;;;9.15;2.72;;;8.60;99.90;;;;;;6238901;23;20024;-85
2022/02/06 10:26:08;;;;;;;9.95;2.47;;;8.70;99.90;;;;;;6237691;23;20020;-85
2022/02/06 10:31:06;;;;;;;13.68;2.90;;;8.70;99.90;;;;;;6242002;22;20468;-85
2022/02/06 10:33:45;;;;;;;15.10;3.10;;;8.80;99.90;;;;;;6243558;22;20036;-85
2022/02/06 10:36:11;;;;;;;20.40;3.03;;;8.70;99.90;;;;;;6243863;22;20031;-84
2022/02/06 10:38:37;;;;;;;11.50;3.15;;;8.70;99.90;;;;;;6169543;22;20098;-86
2022/02/06 10:41:13;;;;;;;14.05;2.97;;;8.70;99.90;;;;;;6217896;22;20105;-84
2022/02/06 10:43:54;;;;;;;13.75;2.90;;;8.70;99.90;;;;;;6218056;22;20024;-87
2022/02/06 10:46:20;;;;;;;19.10;2.85;;;8.70;99.90;;;;;;6243497;22;20522;-83
2022/02/06 10:49:01;;;;;;;14.88;2.78;;;8.80;99.90;;;;;;6242316;22;20012;-80
2022/02/06 10:51:43;;;;;;;3.00;0.93;;;8.70;99.90;;;;;;6218904;22;20448;-85
2022/02/06 10:54:31;;;;;;;3.33;0.40;;;8.00;99.90;;;;;;6243320;22;20360;-84
2022/02/06 10:57:02;;;;;;;4.03;0.70;;;7.10;99.90;;;;;;6243906;22;20024;-84
2022/02/06 10:59:37;;;;;;;2.65;0.60;;;6.50;99.90;;;;;;6242981;22;20106;-83
2022/02/06 11:02:25;;;;;;;4.80;0.70;;;6.10;99.90;;;;;;6242864;22;20020;-85
2022/02/06 11:05:22;;;;;;;5.28;0.70;;;6.00;99.90;;;;;;6217922;22;20102;-86
2022/02/06 11:08:01;;;;;;;5.38;0.75;;;5.90;99.90;;;;;;6218206;22;20125;-84
2022/02/06 11:10:32;;;;;;;3.77;0.80;;;5.80;99.90;;;;;;6243137;22;20031;-85
2022/02/06 11:13:05;;;;;;;6.67;1.10;;;5.80;99.90;;;;;;6217666;22;20090;-85
2022/02/06 11:15:34;;;;;;;6.13;1.00;;;5.80;99.90;;;;;;6242440;22;20547;-76
2022/02/06 11:18:18;;;;;;;2.93;0.67;;;5.80;99.90;;;;;;6216801;22;20436;-76
2022/02/06 11:20:59;;;;;;;6.63;1.90;;;5.90;99.90;;;;;;6217196;22;20020;-76
2022/02/06 11:23:45;;;;;;;6.18;1.75;;;5.90;99.90;;;;;;6242389;22;20407;-76
2022/02/06 11:26:13;;;;;;;7.77;1.90;;;5.90;99.90;;;;;;6218259;22;20020;-79
2022/02/06 11:28:40;;;;;;;4.07;0.93;;;6.00;99.90;;;;;;6216851;22;20448;-76
2022/02/06 11:31:09;;;;;;;6.40;2.53;;;6.00;99.90;;;;;;6237255;23;20016;-76
2022/02/06 11:33:36;;;;;;;4.00;1.20;;;6.00;99.90;;;;;;6188946;23;20013;-76
2022/02/06 11:36:11;;;;;;;1.60;0.60;;;6.00;99.90;;;;;;6238008;23;20024;-77
2022/02/06 11:45:18;;;;;;;5.27;1.67;;;6.00;99.90;;;;;;6234485;23;20377;-78
2022/02/06 11:47:50;;;;;;;5.23;0.50;;;6.00;99.90;;;;;;6210358;23;20111;-77
2022/02/06 11:50:17;;;;;;;4.40;0.67;;;6.10;99.90;;;;;;6212268;23;20090;-77
2022/02/06 11:53:04;;;;;;;4.27;0.60;;;6.10;99.90;;;;;;6239012;23;20027;-77
2022/02/06 11:55:45;;;;;;;5.77;0.77;;;6.10;99.90;;;;;;6238208;23;20034;-78
2022/02/06 11:58:34;;;;;;;4.55;0.73;;;6.00;99.90;;;;;;6237177;23;20107;-77
2022/02/06 12:01:06;;;;;;;6.50;1.02;;;6.10;99.90;;;;;;6238285;23;20023;-77
2022/02/06 12:03:52;;;;;;;5.78;0.93;;;6.20;99.90;;;;;;6236147;23;20110;-77
2022/02/06 12:06:19;;;;;;;6.70;0.85;;;6.10;99.90;;;;;;6210492;23;20176;-77
2022/02/06 12:09:00;;;;;;;5.38;0.95;;;6.10;99.90;;;;;;6211803;23;20039;-77
2022/02/06 12:11:30;;;;;;;5.37;0.67;;;6.20;99.90;;;;;;6212835;23;20099;-77
2022/02/06 12:14:25;;;;;;;6.07;1.10;;;6.20;99.90;;;;;;6212059;23;20094;-79
2022/02/06 12:20:09;;;;;;;5.57;0.77;;;6.20;99.90;;;;;;6237710;23;20016;-79
2022/02/06 12:22:39;;;;;;;3.55;1.10;;;6.20;99.90;;;;;;6213400;23;20430;-78
2022/02/06 12:25:20;;;;;;;7.20;1.35;;;6.20;99.90;;;;;;6212210;23;20020;-78
2022/02/06 12:27:50;;;;;;;3.58;0.70;;;6.10;99.90;;;;;;6212967;23;20357;-78
2022/02/06 12:30:31;;;;;;;6.97;0.95;;;6.20;99.90;;;;;;6236947;23;20016;-78
2022/02/06 12:33:22;;;;;;;4.90;0.97;;;6.20;99.90;;;;;;6236816;23;20031;-78
2022/02/06 12:38:32;;;;;;;4.53;0.80;;;6.30;99.90;;;;;;6216552;23;20028;-79
2022/02/06 12:41:20;;;;;;;5.53;0.93;;;6.30;99.90;;;;;;6238141;23;20073;-78
2022/02/06 12:43:52;;;;;;;6.80;1.00;;;6.30;99.90;;;;;;6212567;23;20570;-79
2022/02/06 12:46:23;;;;;;;7.25;1.02;;;6.40;99.90;;;;;;6211864;23;20016;-77
2022/02/06 12:48:49;;;;;;;;;;;6.40;99.90;;;;;;6239166;23;20495;-78
2022/02/06 12:51:15;;;;;;;9.57;1.10;;;6.40;99.90;;;;;;6212637;23;19916;-79
2022/02/06 12:53:40;;;;;;;8.60;1.20;;;6.40;99.90;;;;;;6212630;23;20050;-79
2022/02/06 12:56:06;;;;;;;7.97;1.23;;;6.40;99.90;;;;;;6237255;23;20105;-78
2022/02/06 12:58:32;;;;;;;7.03;1.15;;;6.50;99.90;;;;;;6186594;23;20330;-77
2022/02/06 13:01:01;;;;;;;8.35;1.40;;;6.50;99.90;;;;;;6233746;23;20099;-80
2022/02/06 13:03:38;;;;;;;10.68;1.52;;;6.60;99.90;;;;;;6236442;23;20349;-78
2022/02/06 13:06:07;;;;;;;11.43;1.92;;;6.60;99.90;;;;;;6210877;23;20016;-78
2022/02/06 13:08:36;;;;;;;6.90;1.08;;;6.60;99.90;;;;;;6210977;23;20056;-79
2022/02/06 13:11:11;;;;;;;9.67;1.40;;;6.70;99.90;;;;;;6211401;23;20026;-80
2022/02/06 13:13:46;;;;;;;10.98;1.88;;;6.70;99.90;;;;;;6209854;23;20020;-78
2022/02/06 13:16:46;;;;;;;9.10;1.90;;;6.70;99.90;;;;;;6209971;23;20302;-78
2022/02/06 13:26:43;;;;;;;10.38;1.50;;;6.80;99.90;;;;;;6236331;23;20095;-73
2022/02/06 13:30:19;;;;;;;8.25;1.55;;;6.80;99.90;;;;;;6235494;23;20359;-81
2022/02/06 13:32:21;;;;;;;12.95;1.85;;;6.80;99.90;;;;;;6214469;22;20020;-78
2022/02/06 13:37:59;;;;;;;14.02;2.00;;;6.90;99.90;;;;;;6239650;22;20066;-79
2022/02/06 13:40:31;;;;;;;10.20;2.50;;;7.00;99.90;;;;;;6241289;22;20387;-80
2022/02/06 13:43:08;;;;;;;10.35;1.95;;;7.10;99.90;;;;;;6217229;22;20093;-79
2022/02/06 13:45:36;;;;;;;11.82;2.75;;;7.10;99.90;;;;;;6216610;22;20051;-79
2022/02/06 13:48:03;;;;;;;9.63;1.98;;;7.20;99.90;;;;;;6217322;22;20062;-80
2022/02/06 13:50:30;;;;;;;11.23;2.10;;;7.30;99.90;;;;;;6194041;22;20063;-79
2022/02/06 13:53:17;;;;;;;12.32;2.78;;;7.30;99.90;;;;;;6189920;22;20337;-79
2022/02/06 13:55:47;;;;;;;11.55;2.47;;;7.50;99.90;;;;;;6218092;22;20099;-81
2022/02/06 13:58:16;;;;;;;9.88;2.00;;;7.60;99.90;;;;;;6243014;22;20024;-79
2022/02/06 14:00:55;;;;;;;7.22;1.67;;;7.60;99.90;;;;;;6218432;22;20024;-80
2022/02/06 14:03:21;;;;;;;14.55;2.05;;;7.60;99.90;;;;;;6217131;22;20023;-80
2022/02/06 14:05:50;;;;;;;12.73;2.50;;;7.60;99.90;;;;;;6217341;22;20687;-80
2022/02/06 14:08:18;;;;;;;9.63;2.03;;;7.70;99.90;;;;;;6242651;22;20015;-80
2022/02/06 14:11:01;;;;;;;9.82;1.92;;;7.70;99.90;;;;;;6218265;22;20026;-80
2022/02/06 14:13:28;;;;;;;13.15;2.22;;;7.70;99.90;;;;;;6219048;22;20023;-80
2022/02/06 14:16:14;;;;;;;15.02;2.15;;;7.80;99.90;;;;;;6243731;22;20395;-80
2022/02/06 14:19:01;;;;;;;13.30;2.20;;;7.80;99.90;;;;;;6212187;22;20758;-80
2022/02/06 14:21:46;;;;;;;11.82;2.25;;;7.80;99.90;;;;;;6214740;22;20019;-80
2022/02/06 14:24:13;;;;;;;17.38;2.60;;;7.70;99.90;;;;;;6242371;22;20495;-80
2022/02/06 14:27:06;;;;;;;8.80;1.80;;;7.70;99.90;;;;;;6243744;22;20051;-80
2022/02/06 14:29:35;;;;;;;14.40;2.25;;;7.80;99.90;;;;;;6243774;22;20020;-80
2022/02/06 14:32:09;;;;;;;13.30;2.40;;;7.60;99.90;;;;;;6243853;22;20517;-79
2022/02/06 14:34:39;;;;;;;11.30;2.22;;;7.80;99.90;;;;;;6216914;22;20081;-80
2022/02/06 14:37:12;;;;;;;10.55;2.13;;;7.70;99.90;;;;;;6192782;22;20016;-80
2022/02/06 14:40:28;;;;;;;15.05;2.60;;;7.80;99.90;;;;;;6243003;22;20065;-81
2022/02/06 14:43:05;;;;;;;12.00;2.42;;;7.80;99.90;;;;;;6119219;23;20017;-79
2022/02/06 14:45:32;;;;;;;10.75;2.25;;;7.80;99.90;;;;;;6265789;22;20020;-79
2022/02/06 14:48:00;;;;;;;15.18;3.03;;;7.80;99.90;;;;;;6168830;22;20049;-81
2022/02/06 14:50:27;;;;;;;12.38;2.28;;;7.80;99.90;;;;;;6215863;22;20464;-79
2022/02/06 14:52:53;;;;;;;9.77;2.08;;;7.80;99.90;;;;;;6165049;22;20019;-77
2022/02/06 14:55:19;;;;;;;11.35;2.55;;;7.80;99.90;;;;;;6214087;22;20026;-79
2022/02/06 14:57:45;;;;;;;12.10;2.15;;;7.80;99.90;;;;;;6165002;22;20015;-81
2022/02/06 15:00:11;;;;;;;10.07;2.47;;;7.80;99.90;;;;;;6192176;22;20047;-73
2022/02/06 15:02:40;;;;;;;9.40;2.28;;;7.80;99.90;;;;;;6184342;22;20015;-80
2022/02/06 15:05:06;;;;;;;10.90;2.13;;;7.90;99.90;;;;;;6213315;22;20411;-80
2022/02/06 15:07:35;;;;;;;10.20;2.10;;;7.80;99.90;;;;;;6189110;22;20015;-81
2022/02/06 15:10:01;;;;;;;14.40;2.22;;;7.80;99.90;;;;;;6213059;22;20022;-82
2022/02/06 15:12:30;;;;;;;9.30;1.67;;;7.80;99.90;;;;;;6193256;22;20015;-82
2022/02/06 15:14:57;;;;;;;14.55;2.42;;;7.60;99.90;;;;;;6217344;22;20104;-78
2022/02/06 15:17:25;;;;;;;13.50;2.37;;;7.70;99.90;;;;;;6218859;22;20108;-80
2022/02/06 15:19:51;;;;;;;9.93;1.95;;;7.70;99.90;;;;;;6218035;22;20581;-80
2022/02/06 15:22:17;;;;;;;10.82;2.20;;;7.70;99.90;;;;;;6216895;22;20646;-80
2022/02/06 15:24:43;;;;;;;13.30;2.17;;;7.60;99.90;;;;;;6167919;22;20449;-79
2022/02/06 15:27:09;;;;;;;15.57;2.65;;;7.60;99.90;;;;;;6217544;22;20034;-80
2022/02/06 15:29:35;;;;;;;16.77;2.08;;;7.60;99.90;;;;;;6216987;22;20098;-78
2022/02/06 15:32:00;;;;;;;11.90;2.40;;;7.70;99.90;;;;;;6211827;23;20020;-79
2022/02/06 15:34:30;;;;;;;11.98;2.33;;;7.60;99.90;;;;;;6213659;23;20016;-79
2022/02/06 15:37:02;;;;;;;12.07;2.30;;;7.60;99.90;;;;;;6235192;23;20019;-81
2022/02/06 15:42:01;;;;;;;14.95;2.40;;;7.60;99.90;;;;;;6235519;23;20024;-79
2022/02/06 15:44:28;;;;;;;10.93;2.10;;;7.60;99.90;;;;;;6236758;23;20039;-76
2022/02/06 15:46:54;;;;;;;13.10;2.72;;;7.40;99.90;;;;;;6235915;23;20027;-82